createdAt,value
2018-01-15T00:00:22.276Z,17.44
2018-01-15T00:02:49.693Z,17.45
2018-01-15T00:05:17.115Z,17.47
2018-01-15T00:07:44.532Z,17.49
2018-01-15T00:10:11.991Z,17.48
2018-01-15T00:12:39.334Z,17.47
2018-01-15T00:15:06.776Z,17.46
2018-01-15T00:17:34.216Z,17.42
2018-01-15T00:20:01.554Z,17.45
2018-01-15T00:22:28.937Z,17.34
2018-01-15T00:24:56.321Z,17.35
2018-01-15T00:27:23.719Z,17.41
2018-01-15T00:29:51.101Z,17.47
2018-01-15T00:32:18.459Z,17.43
2018-01-15T00:34:45.938Z,17.46
2018-01-15T00:37:13.299Z,17.46
2018-01-15T00:39:40.696Z,17.39
2018-01-15T00:42:08.066Z,17.44
2018-01-15T00:44:35.451Z,17.43
2018-01-15T00:47:02.961Z,17.45
2018-01-15T00:49:30.367Z,17.42
2018-01-15T00:51:57.812Z,17.47
2018-01-15T00:54:25.210Z,17.45
2018-01-15T00:56:52.564Z,17.44
2018-01-15T00:59:19.945Z,17.44
2018-01-15T01:01:47.318Z,17.39
2018-01-15T01:04:14.790Z,17.43
2018-01-15T01:06:42.135Z,17.45
2018-01-15T01:09:09.493Z,17.45
2018-01-15T01:11:36.954Z,17.41
2018-01-15T01:14:04.367Z,17.40
2018-01-15T01:16:31.723Z,17.38
2018-01-15T01:18:59.338Z,17.39
2018-01-15T01:21:26.813Z,17.38
2018-01-15T01:23:54.193Z,17.45
2018-01-15T01:26:21.614Z,17.42
2018-01-15T01:28:49.011Z,17.42
2018-01-15T01:31:16.900Z,17.43
2018-01-15T01:33:44.288Z,17.46
2018-01-15T01:36:11.770Z,17.47
2018-01-15T01:38:39.167Z,17.45
2018-01-15T01:41:06.707Z,17.43
2018-01-15T01:43:34.090Z,17.42
2018-01-15T01:46:01.464Z,17.40
2018-01-15T01:48:28.850Z,17.38
2018-01-15T01:50:56.224Z,17.36
2018-01-15T01:53:23.661Z,17.38
2018-01-15T01:55:51.051Z,17.41
2018-01-15T01:58:18.911Z,17.40
2018-01-15T02:00:46.423Z,17.34
2018-01-15T02:03:13.843Z,17.40
2018-01-15T02:05:41.224Z,17.33
2018-01-15T02:08:08.661Z,17.38
2018-01-15T02:10:36.234Z,17.40
2018-01-15T02:13:03.843Z,17.47
2018-01-15T02:15:31.299Z,17.47
2018-01-15T02:17:58.651Z,17.38
2018-01-15T02:20:26.107Z,17.46
2018-01-15T02:22:53.496Z,17.46
2018-01-15T02:25:20.894Z,17.50
2018-01-15T02:27:48.335Z,17.52
2018-01-15T02:30:15.874Z,17.60
2018-01-15T02:32:43.284Z,17.65
2018-01-15T02:35:10.714Z,17.69
2018-01-15T02:37:39.548Z,17.69
2018-01-15T02:40:07.485Z,17.73
2018-01-15T02:42:34.851Z,17.78
2018-01-15T02:45:02.285Z,17.82
2018-01-15T02:47:29.626Z,17.82
2018-01-15T02:49:57.078Z,17.81
2018-01-15T02:52:24.699Z,17.79
2018-01-15T02:54:52.124Z,17.80
2018-01-15T02:57:19.526Z,17.91
2018-01-15T02:59:46.927Z,17.90
2018-01-15T03:02:14.485Z,17.97
2018-01-15T03:04:41.875Z,17.90
2018-01-15T03:07:09.388Z,17.96
2018-01-15T03:09:36.928Z,17.94
2018-01-15T03:12:04.282Z,18.00
2018-01-15T03:14:31.704Z,18.02
2018-01-15T03:16:59.069Z,18.06
2018-01-15T03:19:26.490Z,18.05
2018-01-15T03:21:53.886Z,18.06
2018-01-15T03:24:21.270Z,18.05
2018-01-15T03:26:48.698Z,18.10
2018-01-15T03:29:16.072Z,18.13
2018-01-15T03:31:43.474Z,18.13
2018-01-15T03:34:10.884Z,18.17
2018-01-15T03:36:38.311Z,18.19
2018-01-15T03:39:05.659Z,18.20
2018-01-15T03:41:33.099Z,18.17
2018-01-15T03:44:00.518Z,18.26
2018-01-15T03:46:27.880Z,18.25
2018-01-15T03:48:56.300Z,18.19
2018-01-15T03:51:23.662Z,18.33
2018-01-15T03:53:51.147Z,18.27
2018-01-15T03:56:18.548Z,18.24
2018-01-15T03:58:45.932Z,18.33
2018-01-15T04:01:13.528Z,18.34
2018-01-15T04:03:40.889Z,18.33
2018-01-15T04:06:08.238Z,18.30
2018-01-15T04:08:35.683Z,18.34
2018-01-15T04:11:03.056Z,18.35
2018-01-15T04:13:30.466Z,18.37
2018-01-15T04:15:58.958Z,18.37
2018-01-15T04:18:26.395Z,18.40
2018-01-15T04:20:53.854Z,18.42
2018-01-15T04:23:21.301Z,18.40
2018-01-15T04:25:48.756Z,18.45
2018-01-15T04:28:17.066Z,18.44
2018-01-15T04:30:44.626Z,18.53
2018-01-15T04:33:12.175Z,18.58
2018-01-15T04:35:39.554Z,18.69
2018-01-15T04:38:08.715Z,18.59
2018-01-15T04:40:36.154Z,18.66
2018-01-15T04:43:03.633Z,18.74
2018-01-15T04:45:31.053Z,18.76
2018-01-15T04:47:58.417Z,18.76
2018-01-15T04:50:25.788Z,18.77
2018-01-15T04:52:53.567Z,18.85
2018-01-15T04:55:21.006Z,18.82
2018-01-15T04:57:48.371Z,18.86
2018-01-15T05:00:15.755Z,18.87
2018-01-15T05:02:43.185Z,18.95
2018-01-15T05:05:10.596Z,18.95
2018-01-15T05:07:38.016Z,18.96
2018-01-15T05:10:05.378Z,18.99
2018-01-15T05:12:32.795Z,18.97
2018-01-15T05:15:00.151Z,19.03
2018-01-15T05:17:27.776Z,19.08
2018-01-15T05:19:55.224Z,19.10
2018-01-15T05:22:22.690Z,19.06
2018-01-15T05:24:50.056Z,19.10
2018-01-15T05:27:17.502Z,19.16
2018-01-15T05:29:46.140Z,19.16
2018-01-15T05:32:13.620Z,19.11
2018-01-15T05:34:41.017Z,19.15
2018-01-15T05:37:08.424Z,19.22
2018-01-15T05:39:37.104Z,19.22
2018-01-15T05:42:04.801Z,19.30
2018-01-15T05:44:32.154Z,19.27
2018-01-15T05:46:59.571Z,19.26
2018-01-15T05:49:27.079Z,19.31
2018-01-15T05:51:54.474Z,19.35
2018-01-15T05:54:21.951Z,19.36
2018-01-15T05:56:49.750Z,19.31
2018-01-15T05:59:17.217Z,19.38
2018-01-15T06:01:44.907Z,19.45
2018-01-15T06:04:12.518Z,19.38
2018-01-15T06:06:39.901Z,19.38
2018-01-15T06:09:07.405Z,19.43
2018-01-15T06:11:34.815Z,19.41
2018-01-15T06:14:02.220Z,19.26
2018-01-15T06:16:29.756Z,19.46
2018-01-15T06:18:57.216Z,19.44
2018-01-15T06:21:24.697Z,19.48
2018-01-15T06:23:52.146Z,19.49
2018-01-15T06:26:19.582Z,19.52
2018-01-15T06:28:46.958Z,19.56
2018-01-15T06:31:14.414Z,19.62
2018-01-15T06:33:42.321Z,19.49
2018-01-15T06:36:09.998Z,19.53
2018-01-15T06:38:37.714Z,19.54
2018-01-15T06:41:05.091Z,19.65
2018-01-15T06:43:32.548Z,19.61
2018-01-15T06:46:00.252Z,19.67
2018-01-15T06:48:28.156Z,19.69
2018-01-15T06:50:55.715Z,19.70
2018-01-15T06:53:23.187Z,19.74
2018-01-15T06:55:50.661Z,19.73
2018-01-15T06:58:18.378Z,19.82
2018-01-15T07:00:46.683Z,19.83
2018-01-15T07:03:14.179Z,19.91
2018-01-15T07:05:43.175Z,19.88
2018-01-15T07:08:11.206Z,19.91
2018-01-15T07:10:39.050Z,20.00
2018-01-15T07:13:06.680Z,20.03
2018-01-15T07:15:35.657Z,20.00
2018-01-15T07:18:03.452Z,20.02
2018-01-15T07:20:30.977Z,20.10
2018-01-15T07:22:58.967Z,20.10
2018-01-15T07:25:26.817Z,20.10
2018-01-15T07:27:54.240Z,20.10
2018-01-15T07:30:21.721Z,19.89
2018-01-15T07:32:49.163Z,20.23
2018-01-15T07:35:16.632Z,20.16
2018-01-15T07:37:44.295Z,20.29
2018-01-15T07:40:11.975Z,20.30
2018-01-15T07:42:39.760Z,20.24
2018-01-15T07:45:08.506Z,20.26
2018-01-15T07:47:36.006Z,20.41
2018-01-15T07:50:03.502Z,20.43
2018-01-15T07:52:35.611Z,20.58
2018-01-15T07:55:03.221Z,20.61
2018-01-15T07:57:30.904Z,20.59
2018-01-15T08:00:02.505Z,20.54
2018-01-15T08:02:31.432Z,20.46
2018-01-15T08:05:00.144Z,20.61
2018-01-15T08:07:27.978Z,20.61
2018-01-15T08:09:56.406Z,20.50
2018-01-15T08:12:26.074Z,20.76
2018-01-15T08:14:53.698Z,20.76
2018-01-15T08:17:21.245Z,20.73
2018-01-15T08:19:48.772Z,20.62
2018-01-15T08:22:16.464Z,20.51
2018-01-15T08:24:43.972Z,20.84
2018-01-15T08:27:11.476Z,20.87
2018-01-15T08:29:39.117Z,20.98
2018-01-15T08:32:06.600Z,20.89
2018-01-15T08:34:36.116Z,20.96
2018-01-15T08:37:04.659Z,20.91
2018-01-15T08:39:32.187Z,20.95
2018-01-15T08:42:00.065Z,21.09
2018-01-15T08:44:27.985Z,20.95
2018-01-15T08:46:55.565Z,21.04
2018-01-15T08:49:23.017Z,21.08
2018-01-15T08:51:51.333Z,21.16
2018-01-15T08:56:59.796Z,21.32
2018-01-15T08:59:27.753Z,21.24
2018-01-15T09:01:55.367Z,21.16
2018-01-15T09:04:23.060Z,21.22
2018-01-15T09:06:50.651Z,21.08
2018-01-15T09:09:19.249Z,21.28
2018-01-15T09:11:46.859Z,21.43
2018-01-15T09:14:14.452Z,21.38
2018-01-15T09:16:43.677Z,21.27
2018-01-15T09:19:13.554Z,20.98
2018-01-15T09:21:41.145Z,20.82
2018-01-15T09:24:08.702Z,21.23
2018-01-15T09:26:36.349Z,21.30
2018-01-15T09:29:03.887Z,21.21
2018-01-15T09:31:31.472Z,21.13
2018-01-15T09:33:59.008Z,21.28
2018-01-15T09:36:26.822Z,21.09
2018-01-15T09:38:56.103Z,21.30
2018-01-15T09:41:23.654Z,21.27
2018-01-15T09:43:51.274Z,21.24
2018-01-15T09:46:19.648Z,21.15
2018-01-15T09:48:47.810Z,21.33
2018-01-15T09:51:16.250Z,21.30
2018-01-15T09:53:44.466Z,21.27
2018-01-15T09:56:16.351Z,21.30
2018-01-15T09:58:46.397Z,21.24
2018-01-15T10:01:14.771Z,21.22
2018-01-15T10:03:42.618Z,21.38
2018-01-15T10:06:10.240Z,21.36
2018-01-15T10:08:38.911Z,21.48
2018-01-15T10:11:06.982Z,21.39
2018-01-15T10:13:38.859Z,21.34
2018-01-15T10:16:06.597Z,21.44
2018-01-15T10:18:34.552Z,21.46
2018-01-15T10:21:04.298Z,21.41
2018-01-15T10:23:32.352Z,21.38
2018-01-15T10:26:01.754Z,21.51
2018-01-15T10:28:29.498Z,21.47
2018-01-15T10:31:03.082Z,21.30
2018-01-15T10:33:32.392Z,21.54
2018-01-15T10:36:06.181Z,21.53
2018-01-15T10:38:35.548Z,21.43
2018-01-15T10:41:06.952Z,21.51
2018-01-15T10:43:35.182Z,21.52
2018-01-15T10:46:03.424Z,21.54
2018-01-15T10:48:31.098Z,21.60
2018-01-15T10:51:00.367Z,21.64
2018-01-15T10:53:29.317Z,21.68
2018-01-15T10:55:57.002Z,21.56
2018-01-15T10:58:24.608Z,21.69
2018-01-15T11:00:52.501Z,21.65
2018-01-15T11:03:20.778Z,21.66
2018-01-15T11:05:48.758Z,21.60
2018-01-15T11:10:56.835Z,21.68
2018-01-15T11:13:25.795Z,21.72
2018-01-15T11:15:54.378Z,21.73
2018-01-15T11:18:22.390Z,21.76
2018-01-15T11:20:54.177Z,21.70
2018-01-15T11:23:22.149Z,21.71
2018-01-15T11:25:50.246Z,21.66
2018-01-15T11:28:25.229Z,21.64
2018-01-15T11:30:53.036Z,21.80
2018-01-15T11:33:23.322Z,21.72
2018-01-15T11:35:52.536Z,21.84
2018-01-15T11:38:20.382Z,21.76
2018-01-15T11:40:50.446Z,21.79
2018-01-15T11:43:19.616Z,21.82
2018-01-15T11:45:49.211Z,21.87
2018-01-15T11:48:19.600Z,21.82
2018-01-15T11:50:48.741Z,21.82
2018-01-15T11:53:16.314Z,21.81
2018-01-15T11:55:46.160Z,21.89
2018-01-15T11:58:14.866Z,21.83
2018-01-15T12:00:43.076Z,21.97
2018-01-15T12:03:14.184Z,21.94
2018-01-15T12:05:44.242Z,21.93
2018-01-15T12:08:12.431Z,22.00
2018-01-15T12:10:40.379Z,22.01
2018-01-15T12:13:08.483Z,22.02
2018-01-15T12:15:36.717Z,22.05
2018-01-15T12:18:05.228Z,22.05
2018-01-15T12:20:34.236Z,22.04
2018-01-15T12:23:02.678Z,21.98
2018-01-15T12:30:35.553Z,22.00
2018-01-15T12:33:03.868Z,22.04
2018-01-15T12:35:31.822Z,22.08
2018-01-15T12:37:59.321Z,22.04
2018-01-15T12:45:30.178Z,22.07
2018-01-15T12:48:00.922Z,22.13
2018-01-15T12:50:28.699Z,22.12
2018-01-15T12:52:57.158Z,22.11
2018-01-15T12:55:26.488Z,22.04
2018-01-15T12:57:54.345Z,22.08
2018-01-15T13:00:22.081Z,22.12
2018-01-15T13:02:50.177Z,22.09
2018-01-15T13:05:18.042Z,22.13
2018-01-15T13:07:49.510Z,22.16
2018-01-15T13:10:17.354Z,22.18
2018-01-15T13:12:48.645Z,22.17
2018-01-15T13:15:16.932Z,22.11
2018-01-15T13:17:45.113Z,22.21
2018-01-15T13:20:15.388Z,22.30
2018-01-15T13:22:46.349Z,22.23
2018-01-15T13:25:14.685Z,22.27
2018-01-15T13:27:43.084Z,22.32
2018-01-15T13:30:10.930Z,22.30
2018-01-15T13:32:38.971Z,22.34
2018-01-15T13:35:07.701Z,22.18
2018-01-15T13:37:38.734Z,22.29
2018-01-15T13:40:06.497Z,22.23
2018-01-15T13:42:35.927Z,22.29
2018-01-15T13:45:04.203Z,22.33
2018-01-15T13:47:32.132Z,22.28
2018-01-15T13:50:00.904Z,22.26
2018-01-15T13:52:28.812Z,22.13
2018-01-15T13:54:57.606Z,22.28
2018-01-15T13:57:25.190Z,22.27
2018-01-15T13:59:52.715Z,22.20
2018-01-15T14:02:22.171Z,22.25
2018-01-15T14:04:49.775Z,22.32
2018-01-15T14:07:17.740Z,22.37
2018-01-15T14:09:54.221Z,22.32
2018-01-15T14:12:22.197Z,22.32
2018-01-15T14:14:49.781Z,22.30
2018-01-15T14:17:17.386Z,22.31
2018-01-15T14:19:44.988Z,22.31
2018-01-15T14:22:12.533Z,22.26
2018-01-15T14:24:40.075Z,22.25
2018-01-15T14:27:08.559Z,22.31
2018-01-15T14:29:37.167Z,22.25
2018-01-15T14:32:05.409Z,22.26
2018-01-15T14:34:33.285Z,22.20
2018-01-15T14:37:01.358Z,22.22
2018-01-15T14:39:29.648Z,22.30
2018-01-15T14:41:57.120Z,22.23
2018-01-15T14:44:25.389Z,22.29
2018-01-15T14:46:54.364Z,22.30
2018-01-15T14:49:22.784Z,22.25
2018-01-15T14:51:51.847Z,22.20
2018-01-15T14:54:19.670Z,22.23
2018-01-15T14:56:47.376Z,22.17
2018-01-15T14:59:15.041Z,22.19
2018-01-15T15:01:42.700Z,22.16
2018-01-15T15:04:10.716Z,22.23
2018-01-15T15:06:38.346Z,22.21
2018-01-15T15:09:06.015Z,22.11
2018-01-15T15:11:33.554Z,22.26
2018-01-15T15:14:01.088Z,22.19
2018-01-15T15:16:28.650Z,22.17
2018-01-15T15:18:56.461Z,22.06
2018-01-15T15:21:24.700Z,22.14
2018-01-15T15:23:52.406Z,22.09
2018-01-15T15:26:20.223Z,22.08
2018-01-15T15:28:47.663Z,22.11
2018-01-15T15:31:15.556Z,21.96
2018-01-15T15:33:43.968Z,21.92
2018-01-15T15:36:13.065Z,21.87
2018-01-15T15:38:44.332Z,21.90
2018-01-15T15:41:11.817Z,21.85
2018-01-15T15:43:40.344Z,21.90
2018-01-15T15:46:08.052Z,21.87
2018-01-15T15:48:35.944Z,21.74
2018-01-15T15:51:03.492Z,21.80
2018-01-15T15:53:31.053Z,21.71
2018-01-15T15:55:58.614Z,21.63
2018-01-15T15:58:26.099Z,21.71
2018-01-15T16:00:53.777Z,21.70
2018-01-15T16:03:21.479Z,21.74
2018-01-15T16:05:53.277Z,21.70
2018-01-15T16:08:20.810Z,21.71
2018-01-15T16:10:48.244Z,21.62
2018-01-15T16:13:15.851Z,21.80
2018-01-15T16:15:43.369Z,21.75
2018-01-15T16:18:10.942Z,21.73
2018-01-15T16:20:38.856Z,21.74
2018-01-15T16:23:06.422Z,21.56
2018-01-15T16:25:33.986Z,21.66
2018-01-15T16:28:01.471Z,21.66
2018-01-15T16:30:28.891Z,21.62
2018-01-15T16:32:56.626Z,21.66
2018-01-15T16:35:24.270Z,21.57
2018-01-15T16:37:52.468Z,21.59
2018-01-15T16:40:19.981Z,21.57
2018-01-15T16:42:48.380Z,21.61
2018-01-15T16:45:15.958Z,21.59
2018-01-15T16:47:43.396Z,21.51
2018-01-15T16:50:10.839Z,21.51
2018-01-15T16:52:38.339Z,21.39
2018-01-15T16:55:05.873Z,21.41
2018-01-15T16:57:33.359Z,21.42
2018-01-15T17:00:00.756Z,21.41
2018-01-15T17:02:28.223Z,21.38
2018-01-15T17:04:55.577Z,21.30
2018-01-15T17:07:23.058Z,21.34
2018-01-15T17:09:50.725Z,21.26
2018-01-15T17:12:18.376Z,21.29
2018-01-15T17:14:45.941Z,21.24
2018-01-15T17:17:13.461Z,21.27
2018-01-15T17:19:40.867Z,21.23
2018-01-15T17:22:08.358Z,21.21
2018-01-15T17:24:35.755Z,21.14
2018-01-15T17:27:03.174Z,21.17
2018-01-15T17:29:30.590Z,21.09
2018-01-15T17:31:58.425Z,21.12
2018-01-15T17:34:25.842Z,21.10
2018-01-15T17:36:53.298Z,21.10
2018-01-15T17:39:21.784Z,21.09
2018-01-15T17:41:49.251Z,21.04
2018-01-15T17:44:16.722Z,20.93
2018-01-15T17:46:44.142Z,21.02
2018-01-15T17:49:11.558Z,20.98
2018-01-15T17:51:38.942Z,21.00
2018-01-15T17:54:06.345Z,21.00
2018-01-15T17:56:33.761Z,20.95
2018-01-15T17:59:01.141Z,20.92
2018-01-15T18:01:28.642Z,20.93
2018-01-15T18:03:56.094Z,20.98
2018-01-15T18:06:23.451Z,20.85
2018-01-15T18:08:50.840Z,20.83
2018-01-15T18:11:18.264Z,20.83
2018-01-15T18:13:45.712Z,20.88
2018-01-15T18:16:13.122Z,20.78
2018-01-15T18:18:40.502Z,20.75
2018-01-15T18:21:07.979Z,20.74
2018-01-15T18:23:35.350Z,20.66
2018-01-15T18:26:02.783Z,20.63
2018-01-15T18:28:30.182Z,20.64
2018-01-15T18:30:57.841Z,20.68
2018-01-15T18:33:25.236Z,20.65
2018-01-15T18:35:52.632Z,20.54
2018-01-15T18:38:19.972Z,20.54
2018-01-15T18:40:47.421Z,20.53
2018-01-15T18:43:14.811Z,20.56
2018-01-15T18:45:42.202Z,20.56
2018-01-15T18:48:09.582Z,20.51
2018-01-15T18:50:37.050Z,20.54
2018-01-15T18:53:04.431Z,20.45
2018-01-15T18:55:31.794Z,20.45
2018-01-15T18:57:59.190Z,20.47
2018-01-15T19:00:26.550Z,20.49
2018-01-15T19:02:53.919Z,20.46
2018-01-15T19:05:21.357Z,20.38
2018-01-15T19:07:48.732Z,20.46
2018-01-15T19:10:16.146Z,20.39
2018-01-15T19:12:43.628Z,20.35
2018-01-15T19:15:11.048Z,20.36
2018-01-15T19:17:38.450Z,20.31
2018-01-15T19:20:05.844Z,20.26
2018-01-15T19:22:33.236Z,20.29
2018-01-15T19:25:00.718Z,20.30
2018-01-15T19:27:28.123Z,20.29
2018-01-15T19:29:55.563Z,20.23
2018-01-15T19:32:22.982Z,20.16
2018-01-15T19:34:50.360Z,20.26
2018-01-15T19:37:18.417Z,20.20
2018-01-15T19:39:45.917Z,20.21
2018-01-15T19:42:13.461Z,20.20
2018-01-15T19:44:40.830Z,20.16
2018-01-15T19:47:08.426Z,20.16
2018-01-15T19:49:35.765Z,20.10
2018-01-15T19:52:03.157Z,20.08
2018-01-15T19:54:30.583Z,20.08
2018-01-15T19:56:57.960Z,20.10
2018-01-15T19:59:25.360Z,20.08
2018-01-15T20:01:52.751Z,20.08
2018-01-15T20:04:20.199Z,20.08
2018-01-15T20:06:47.554Z,20.06
2018-01-15T20:09:14.959Z,20.14
2018-01-15T20:11:42.295Z,20.13
2018-01-15T20:14:09.735Z,20.14
2018-01-15T20:16:37.225Z,20.13
2018-01-15T20:19:04.578Z,20.13
2018-01-15T20:21:31.972Z,20.10
2018-01-15T20:23:59.370Z,20.02
2018-01-15T20:26:26.771Z,19.89
2018-01-15T20:28:54.185Z,19.92
2018-01-15T20:31:21.523Z,19.83
2018-01-15T20:33:48.920Z,19.81
2018-01-15T20:36:16.437Z,19.83
2018-01-15T20:38:43.832Z,19.81
2018-01-15T20:41:11.291Z,19.74
2018-01-15T20:43:38.700Z,19.77
2018-01-15T20:46:06.162Z,19.72
2018-01-15T20:48:33.566Z,19.71
2018-01-15T20:51:00.989Z,19.74
2018-01-15T20:53:28.482Z,19.67
2018-01-15T20:55:55.917Z,19.70
2018-01-15T20:58:23.338Z,19.68
2018-01-15T21:00:50.766Z,19.63
2018-01-15T21:03:18.159Z,19.61
2018-01-15T21:05:45.562Z,19.60
2018-01-15T21:08:12.923Z,19.60
2018-01-15T21:10:40.309Z,19.62
2018-01-15T21:13:07.855Z,19.74
2018-01-15T21:15:35.274Z,19.74
2018-01-15T21:18:02.672Z,19.75
2018-01-15T21:20:30.040Z,19.70
2018-01-15T21:22:57.418Z,19.71
2018-01-15T21:25:24.800Z,19.76
2018-01-15T21:27:52.207Z,19.74
2018-01-15T21:30:19.575Z,19.83
2018-01-15T21:32:47.168Z,19.80
2018-01-15T21:35:14.583Z,19.80
2018-01-15T21:37:41.977Z,19.80
2018-01-15T21:40:09.596Z,19.80
2018-01-15T21:42:36.975Z,19.83
2018-01-15T21:45:04.378Z,19.79
2018-01-15T21:47:31.759Z,19.83
2018-01-15T21:49:59.119Z,19.85
2018-01-15T21:52:27.185Z,19.88
2018-01-15T21:54:54.618Z,19.82
2018-01-15T21:57:22.055Z,19.86
2018-01-15T21:59:49.449Z,19.85
2018-01-15T22:02:16.878Z,19.87
2018-01-15T22:04:44.480Z,19.84
2018-01-15T22:07:11.848Z,19.87
2018-01-15T22:09:39.201Z,19.90
2018-01-15T22:12:06.626Z,19.86
2018-01-15T22:14:33.999Z,19.88
2018-01-15T22:17:01.428Z,19.89
2018-01-15T22:19:28.830Z,19.90
2018-01-15T22:21:56.189Z,19.91
2018-01-15T22:24:23.667Z,19.90
2018-01-15T22:26:51.059Z,19.89
2018-01-15T22:29:18.454Z,19.93
2018-01-15T22:31:45.859Z,19.90
2018-01-15T22:34:13.297Z,19.90
2018-01-15T22:36:40.646Z,19.87
2018-01-15T22:39:08.053Z,19.88
2018-01-15T22:41:35.474Z,19.88
2018-01-15T22:44:02.834Z,19.88
2018-01-15T22:46:30.236Z,19.94
2018-01-15T22:48:57.590Z,19.80
2018-01-15T22:51:24.997Z,19.87
2018-01-15T22:53:52.329Z,19.80
2018-01-15T22:56:19.676Z,19.73
2018-01-15T22:58:47.090Z,19.70
2018-01-15T23:01:14.474Z,19.63
2018-01-15T23:03:41.996Z,19.61
2018-01-15T23:06:09.466Z,19.55
2018-01-15T23:08:36.846Z,19.49
2018-01-15T23:11:04.198Z,19.46
2018-01-15T23:13:31.672Z,19.45
2018-01-15T23:15:59.137Z,19.49
2018-01-15T23:18:26.507Z,19.48
2018-01-15T23:20:53.912Z,19.43
2018-01-15T23:23:21.427Z,19.40
2018-01-15T23:25:48.818Z,19.36
2018-01-15T23:28:16.183Z,19.37
2018-01-15T23:30:43.728Z,19.31
2018-01-15T23:33:11.199Z,19.30
2018-01-15T23:35:38.561Z,19.32
2018-01-15T23:38:05.964Z,19.31
2018-01-15T23:40:33.347Z,19.30
2018-01-15T23:43:00.706Z,19.29
2018-01-15T23:45:28.145Z,19.30
2018-01-15T23:47:55.565Z,19.28
2018-01-15T23:50:22.940Z,19.17
2018-01-15T23:52:50.378Z,19.21
2018-01-15T23:55:17.779Z,19.24
2018-01-15T23:57:45.209Z,19.23
